sensor_id;sensor_type;location;lat;lon;timestamp;pressure;altitude;pressure_sealevel;temperature;humidity
77454;BME280;66538;53.150;18.160;2023-07-24T00:00:43;100429.55;;;18.05;62.24
77454;BME280;66538;53.150;18.160;2023-07-24T00:03:29;100433.91;;;17.99;62.43
77454;BME280;66538;53.150;18.160;2023-07-24T00:05:58;100432.23;;;17.93;62.64
77454;BME280;66538;53.150;18.160;2023-07-24T00:08:28;100432.44;;;17.89;62.68
77454;BME280;66538;53.150;18.160;2023-07-24T00:10:54;100434.05;;;17.85;62.97
77454;BME280;66538;53.150;18.160;2023-07-24T00:13:21;100432.13;;;17.83;62.88
77454;BME280;66538;53.150;18.160;2023-07-24T00:15:48;100432.42;;;17.79;63.04
77454;BME280;66538;53.150;18.160;2023-07-24T00:18:14;100432.75;;;17.76;63.02
77454;BME280;66538;53.150;18.160;2023-07-24T00:20:41;100434.48;;;17.71;63.02
77454;BME280;66538;53.150;18.160;2023-07-24T00:23:07;100433.98;;;17.68;63.10
77454;BME280;66538;53.150;18.160;2023-07-24T00:29:51;100435.33;;;17.59;63.40
77454;BME280;66538;53.150;18.160;2023-07-24T00:32:18;100435.90;;;17.56;63.47
77454;BME280;66538;53.150;18.160;2023-07-24T00:34:44;100431.02;;;17.52;63.37
77454;BME280;66538;53.150;18.160;2023-07-24T00:37:11;100431.83;;;17.51;63.31
77454;BME280;66538;53.150;18.160;2023-07-24T00:39:37;100431.31;;;17.48;63.54
77454;BME280;66538;53.150;18.160;2023-07-24T00:42:04;100428.89;;;17.45;63.54
77454;BME280;66538;53.150;18.160;2023-07-24T00:44:31;100431.48;;;17.42;63.56
77454;BME280;66538;53.150;18.160;2023-07-24T00:46:58;100434.34;;;17.40;63.52
77454;BME280;66538;53.150;18.160;2023-07-24T00:49:25;100436.20;;;17.38;63.51
77454;BME280;66538;53.150;18.160;2023-07-24T00:51:52;100433.75;;;17.38;63.22
77454;BME280;66538;53.150;18.160;2023-07-24T00:54:19;100434.80;;;17.37;63.29
77454;BME280;66538;53.150;18.160;2023-07-24T00:56:47;100435.48;;;17.36;63.31
77454;BME280;66538;53.150;18.160;2023-07-24T00:59:15;100437.14;;;17.36;63.37
77454;BME280;66538;53.150;18.160;2023-07-24T01:01:42;100437.25;;;17.36;63.24
77454;BME280;66538;53.150;18.160;2023-07-24T01:04:09;100432.80;;;17.36;63.23
77454;BME280;66538;53.150;18.160;2023-07-24T01:06:36;100431.96;;;17.35;63.02
77454;BME280;66538;53.150;18.160;2023-07-24T01:09:03;100434.90;;;17.34;63.13
77454;BME280;66538;53.150;18.160;2023-07-24T01:11:36;100434.88;;;17.33;63.16
77454;BME280;66538;53.150;18.160;2023-07-24T01:14:23;100438.26;;;17.30;63.38
77454;BME280;66538;53.150;18.160;2023-07-24T01:16:53;100442.21;;;17.30;63.20
77454;BME280;66538;53.150;18.160;2023-07-24T01:19:36;100439.27;;;17.25;63.15
77454;BME280;66538;53.150;18.160;2023-07-24T01:22:24;100441.30;;;17.23;63.36
77454;BME280;66538;53.150;18.160;2023-07-24T01:25:00;100438.06;;;17.18;63.55
77454;BME280;66538;53.150;18.160;2023-07-24T01:27:30;100438.30;;;17.13;63.66
77454;BME280;66538;53.150;18.160;2023-07-24T01:29:57;100435.89;;;17.08;63.54
77454;BME280;66538;53.150;18.160;2023-07-24T01:32:23;100433.77;;;17.05;63.88
77454;BME280;66538;53.150;18.160;2023-07-24T01:34:52;100433.45;;;17.00;63.99
77454;BME280;66538;53.150;18.160;2023-07-24T01:37:20;100434.60;;;16.97;64.18
77454;BME280;66538;53.150;18.160;2023-07-24T01:39:48;100432.10;;;16.92;64.25
77454;BME280;66538;53.150;18.160;2023-07-24T01:42:14;100430.86;;;16.88;64.35
77454;BME280;66538;53.150;18.160;2023-07-24T01:44:41;100423.33;;;16.83;64.50
77454;BME280;66538;53.150;18.160;2023-07-24T01:47:08;100424.15;;;16.79;64.73
77454;BME280;66538;53.150;18.160;2023-07-24T01:49:34;100424.05;;;16.75;64.67
77454;BME280;66538;53.150;18.160;2023-07-24T01:52:01;100420.44;;;16.70;64.84
77454;BME280;66538;53.150;18.160;2023-07-24T01:54:28;100418.27;;;16.67;64.91
77454;BME280;66538;53.150;18.160;2023-07-24T01:56:54;100415.80;;;16.64;65.14
77454;BME280;66538;53.150;18.160;2023-07-24T01:59:21;100414.23;;;16.57;65.59
77454;BME280;66538;53.150;18.160;2023-07-24T02:01:48;100416.87;;;16.51;65.79
77454;BME280;66538;53.150;18.160;2023-07-24T02:04:15;100407.68;;;16.44;66.15
77454;BME280;66538;53.150;18.160;2023-07-24T02:06:41;100413.07;;;16.40;66.28
77454;BME280;66538;53.150;18.160;2023-07-24T02:09:09;100420.76;;;16.36;66.42
77454;BME280;66538;53.150;18.160;2023-07-24T02:11:35;100419.88;;;16.34;66.67
77454;BME280;66538;53.150;18.160;2023-07-24T02:14:02;100424.33;;;16.32;66.87
77454;BME280;66538;53.150;18.160;2023-07-24T02:16:29;100427.13;;;16.30;67.28
77454;BME280;66538;53.150;18.160;2023-07-24T02:18:55;100430.76;;;16.28;67.40
77454;BME280;66538;53.150;18.160;2023-07-24T02:21:22;100424.62;;;16.26;67.52
77454;BME280;66538;53.150;18.160;2023-07-24T02:23:48;100424.61;;;16.24;67.47
77454;BME280;66538;53.150;18.160;2023-07-24T02:26:15;100426.31;;;16.24;67.65
77454;BME280;66538;53.150;18.160;2023-07-24T02:28:42;100427.89;;;16.21;68.00
77454;BME280;66538;53.150;18.160;2023-07-24T02:31:08;100424.48;;;16.18;68.29
77454;BME280;66538;53.150;18.160;2023-07-24T02:33:35;100426.30;;;16.16;68.18
77454;BME280;66538;53.150;18.160;2023-07-24T02:36:02;100428.30;;;16.12;68.25
77454;BME280;66538;53.150;18.160;2023-07-24T02:38:28;100427.70;;;16.13;68.21
77454;BME280;66538;53.150;18.160;2023-07-24T02:40:55;100422.91;;;16.11;68.00
77454;BME280;66538;53.150;18.160;2023-07-24T02:43:22;100423.37;;;16.11;67.94
77454;BME280;66538;53.150;18.160;2023-07-24T02:45:48;100417.53;;;16.10;67.93
77454;BME280;66538;53.150;18.160;2023-07-24T02:48:16;100417.49;;;16.09;68.04
77454;BME280;66538;53.150;18.160;2023-07-24T02:50:42;100415.16;;;16.08;68.07
77454;BME280;66538;53.150;18.160;2023-07-24T02:53:09;100412.55;;;16.07;68.24
77454;BME280;66538;53.150;18.160;2023-07-24T02:55:36;100418.00;;;16.08;68.35
77454;BME280;66538;53.150;18.160;2023-07-24T02:58:02;100417.30;;;16.10;68.54
77454;BME280;66538;53.150;18.160;2023-07-24T03:00:31;100416.53;;;16.10;68.57
77454;BME280;66538;53.150;18.160;2023-07-24T03:02:57;100413.55;;;16.11;68.63
77454;BME280;66538;53.150;18.160;2023-07-24T03:05:24;100417.71;;;16.13;68.92
77454;BME280;66538;53.150;18.160;2023-07-24T03:07:51;100408.00;;;16.16;69.09
77454;BME280;66538;53.150;18.160;2023-07-24T03:10:17;100408.52;;;16.19;69.27
77454;BME280;66538;53.150;18.160;2023-07-24T03:12:44;100406.96;;;16.20;69.10
77454;BME280;66538;53.150;18.160;2023-07-24T03:15:12;100407.30;;;16.22;69.13
77454;BME280;66538;53.150;18.160;2023-07-24T03:17:38;100397.93;;;16.24;69.24
77454;BME280;66538;53.150;18.160;2023-07-24T03:20:09;100400.50;;;16.29;69.46
77454;BME280;66538;53.150;18.160;2023-07-24T03:22:36;100402.27;;;16.32;69.28
77454;BME280;66538;53.150;18.160;2023-07-24T03:25:03;100405.69;;;16.35;69.47
77454;BME280;66538;53.150;18.160;2023-07-24T03:27:30;100411.68;;;16.39;69.75
77454;BME280;66538;53.150;18.160;2023-07-24T03:29:57;100413.22;;;16.44;69.49
77454;BME280;66538;53.150;18.160;2023-07-24T03:32:23;100418.25;;;16.49;69.28
77454;BME280;66538;53.150;18.160;2023-07-24T03:34:51;100422.42;;;16.52;69.04
77454;BME280;66538;53.150;18.160;2023-07-24T03:37:18;100421.48;;;16.57;68.74
77454;BME280;66538;53.150;18.160;2023-07-24T03:39:44;100412.85;;;16.61;68.40
77454;BME280;66538;53.150;18.160;2023-07-24T03:42:11;100414.08;;;16.67;68.34
77454;BME280;66538;53.150;18.160;2023-07-24T03:44:41;100416.55;;;16.74;68.24
77454;BME280;66538;53.150;18.160;2023-07-24T03:47:08;100412.48;;;16.80;68.09
77454;BME280;66538;53.150;18.160;2023-07-24T03:49:34;100414.96;;;16.88;67.98
77454;BME280;66538;53.150;18.160;2023-07-24T03:52:01;100415.27;;;16.94;67.93
77454;BME280;66538;53.150;18.160;2023-07-24T03:54:27;100412.71;;;16.99;68.00
77454;BME280;66538;53.150;18.160;2023-07-24T03:56:54;100408.73;;;17.02;67.97
77454;BME280;66538;53.150;18.160;2023-07-24T03:59:20;100406.48;;;17.09;67.90
77454;BME280;66538;53.150;18.160;2023-07-24T04:01:47;100410.66;;;17.18;67.91
77454;BME280;66538;53.150;18.160;2023-07-24T04:04:14;100415.77;;;17.24;67.76
77454;BME280;66538;53.150;18.160;2023-07-24T04:06:40;100416.91;;;17.30;67.62
77454;BME280;66538;53.150;18.160;2023-07-24T04:09:07;100417.75;;;17.36;67.43
77454;BME280;66538;53.150;18.160;2023-07-24T04:11:34;100418.32;;;17.42;67.33
77454;BME280;66538;53.150;18.160;2023-07-24T04:14:00;100416.36;;;17.47;67.15
77454;BME280;66538;53.150;18.160;2023-07-24T04:16:27;100418.00;;;17.54;67.11
77454;BME280;66538;53.150;18.160;2023-07-24T04:18:54;100419.73;;;17.60;66.78
77454;BME280;66538;53.150;18.160;2023-07-24T04:21:20;100416.89;;;17.67;66.92
77454;BME280;66538;53.150;18.160;2023-07-24T04:23:47;100416.45;;;17.72;66.71
77454;BME280;66538;53.150;18.160;2023-07-24T04:26:13;100414.34;;;17.78;66.53
77454;BME280;66538;53.150;18.160;2023-07-24T04:28:40;100421.12;;;17.84;66.35
77454;BME280;66538;53.150;18.160;2023-07-24T04:31:06;100420.47;;;17.92;66.08
77454;BME280;66538;53.150;18.160;2023-07-24T04:33:33;100419.73;;;17.98;65.92
77454;BME280;66538;53.150;18.160;2023-07-24T04:35:59;100415.17;;;18.05;65.77
77454;BME280;66538;53.150;18.160;2023-07-24T04:38:26;100415.50;;;18.14;65.63
77454;BME280;66538;53.150;18.160;2023-07-24T04:40:53;100420.98;;;18.23;65.43
77454;BME280;66538;53.150;18.160;2023-07-24T04:43:19;100419.06;;;18.31;65.33
77454;BME280;66538;53.150;18.160;2023-07-24T04:45:46;100415.36;;;18.37;65.21
77454;BME280;66538;53.150;18.160;2023-07-24T04:48:12;100412.00;;;18.45;65.12
77454;BME280;66538;53.150;18.160;2023-07-24T04:50:39;100409.63;;;18.49;65.08
77454;BME280;66538;53.150;18.160;2023-07-24T04:53:05;100414.14;;;18.54;65.25
77454;BME280;66538;53.150;18.160;2023-07-24T04:55:32;100417.73;;;18.55;65.17
77454;BME280;66538;53.150;18.160;2023-07-24T04:57:59;100418.91;;;18.59;65.08
77454;BME280;66538;53.150;18.160;2023-07-24T05:00:25;100417.15;;;18.64;65.07
77454;BME280;66538;53.150;18.160;2023-07-24T05:02:52;100419.23;;;18.68;64.93
77454;BME280;66538;53.150;18.160;2023-07-24T05:05:19;100416.95;;;18.72;64.79
77454;BME280;66538;53.150;18.160;2023-07-24T05:07:46;100421.44;;;18.76;64.86
77454;BME280;66538;53.150;18.160;2023-07-24T05:10:12;100424.30;;;18.80;64.74
77454;BME280;66538;53.150;18.160;2023-07-24T05:12:42;100430.39;;;18.85;64.72
77454;BME280;66538;53.150;18.160;2023-07-24T05:15:09;100430.45;;;18.90;64.51
77454;BME280;66538;53.150;18.160;2023-07-24T05:17:36;100425.91;;;18.94;64.40
77454;BME280;66538;53.150;18.160;2023-07-24T05:20:04;100421.57;;;19.03;64.30
77454;BME280;66538;53.150;18.160;2023-07-24T05:22:30;100419.00;;;19.12;64.06
77454;BME280;66538;53.150;18.160;2023-07-24T05:24:57;100425.26;;;19.21;64.07
77454;BME280;66538;53.150;18.160;2023-07-24T05:27:24;100429.52;;;19.28;63.81
77454;BME280;66538;53.150;18.160;2023-07-24T05:29:50;100429.14;;;19.31;63.69
77454;BME280;66538;53.150;18.160;2023-07-24T05:32:17;100430.69;;;19.34;63.38
77454;BME280;66538;53.150;18.160;2023-07-24T05:34:44;100428.98;;;19.35;63.32
77454;BME280;66538;53.150;18.160;2023-07-24T05:37:10;100427.04;;;19.41;63.19
77454;BME280;66538;53.150;18.160;2023-07-24T05:39:37;100421.83;;;19.50;63.06
77454;BME280;66538;53.150;18.160;2023-07-24T05:42:04;100421.88;;;19.60;63.24
77454;BME280;66538;53.150;18.160;2023-07-24T05:44:31;100421.35;;;19.69;63.17
77454;BME280;66538;53.150;18.160;2023-07-24T05:46:57;100425.15;;;19.78;63.26
77454;BME280;66538;53.150;18.160;2023-07-24T05:49:24;100428.94;;;19.82;63.62
77454;BME280;66538;53.150;18.160;2023-07-24T05:51:50;100428.54;;;19.84;63.44
77454;BME280;66538;53.150;18.160;2023-07-24T05:54:18;100428.23;;;19.84;63.77
77454;BME280;66538;53.150;18.160;2023-07-24T05:56:45;100425.73;;;19.85;64.03
77454;BME280;66538;53.150;18.160;2023-07-24T05:59:11;100422.30;;;19.86;64.37
77454;BME280;66538;53.150;18.160;2023-07-24T06:01:38;100428.05;;;19.82;64.90
77454;BME280;66538;53.150;18.160;2023-07-24T06:04:05;100437.05;;;19.80;65.15
77454;BME280;66538;53.150;18.160;2023-07-24T06:06:33;100437.88;;;19.75;65.46
77454;BME280;66538;53.150;18.160;2023-07-24T06:09:00;100434.44;;;19.71;65.87
77454;BME280;66538;53.150;18.160;2023-07-24T06:11:26;100442.50;;;19.70;66.17
77454;BME280;66538;53.150;18.160;2023-07-24T06:13:53;100451.48;;;19.72;66.39
77454;BME280;66538;53.150;18.160;2023-07-24T06:16:20;100446.42;;;19.72;66.89
77454;BME280;66538;53.150;18.160;2023-07-24T06:18:47;100451.91;;;19.70;67.25
77454;BME280;66538;53.150;18.160;2023-07-24T06:21:13;100453.84;;;19.64;67.58
77454;BME280;66538;53.150;18.160;2023-07-24T06:23:40;100447.73;;;19.57;67.78
77454;BME280;66538;53.150;18.160;2023-07-24T06:26:06;100441.11;;;19.51;68.01
77454;BME280;66538;53.150;18.160;2023-07-24T06:28:33;100440.36;;;19.48;68.82
77454;BME280;66538;53.150;18.160;2023-07-24T06:31:00;100437.92;;;19.46;68.86
77454;BME280;66538;53.150;18.160;2023-07-24T06:33:26;100434.75;;;19.45;69.00
77454;BME280;66538;53.150;18.160;2023-07-24T06:35:53;100441.57;;;19.48;69.40
77454;BME280;66538;53.150;18.160;2023-07-24T06:38:19;100431.36;;;19.53;69.45
77454;BME280;66538;53.150;18.160;2023-07-24T06:40:48;100435.38;;;19.65;69.42
77454;BME280;66538;53.150;18.160;2023-07-24T06:43:15;100433.92;;;19.83;69.47
77454;BME280;66538;53.150;18.160;2023-07-24T06:45:41;100429.52;;;20.00;69.80
77454;BME280;66538;53.150;18.160;2023-07-24T06:48:08;100418.89;;;20.14;69.55
77454;BME280;66538;53.150;18.160;2023-07-24T06:50:34;100405.63;;;20.26;69.18
77454;BME280;66538;53.150;18.160;2023-07-24T06:53:01;100390.36;;;20.37;69.66
77454;BME280;66538;53.150;18.160;2023-07-24T06:55:27;100379.14;;;20.48;69.82
77454;BME280;66538;53.150;18.160;2023-07-24T06:57:54;100377.06;;;20.54;69.61
77454;BME280;66538;53.150;18.160;2023-07-24T07:00:20;100382.21;;;20.57;69.74
77454;BME280;66538;53.150;18.160;2023-07-24T07:02:47;100381.90;;;20.59;69.79
77454;BME280;66538;53.150;18.160;2023-07-24T07:05:14;100374.44;;;20.62;69.66
77454;BME280;66538;53.150;18.160;2023-07-24T07:07:40;100374.36;;;20.65;69.64
77454;BME280;66538;53.150;18.160;2023-07-24T07:10:07;100368.35;;;20.71;69.75
77454;BME280;66538;53.150;18.160;2023-07-24T07:12:34;100362.98;;;20.81;69.73
77454;BME280;66538;53.150;18.160;2023-07-24T07:15:01;100363.56;;;20.95;69.50
77454;BME280;66538;53.150;18.160;2023-07-24T07:17:27;100366.83;;;21.13;69.58
77454;BME280;66538;53.150;18.160;2023-07-24T07:19:54;100369.99;;;21.29;68.91
77454;BME280;66538;53.150;18.160;2023-07-24T07:22:22;100367.86;;;21.42;68.61
77454;BME280;66538;53.150;18.160;2023-07-24T07:24:49;100367.34;;;21.58;68.47
77454;BME280;66538;53.150;18.160;2023-07-24T07:27:15;100363.51;;;21.67;68.46
77454;BME280;66538;53.150;18.160;2023-07-24T07:29:43;100365.13;;;21.79;67.90
77454;BME280;66538;53.150;18.160;2023-07-24T07:32:10;100362.83;;;21.84;67.39
77454;BME280;66538;53.150;18.160;2023-07-24T07:34:37;100364.94;;;21.77;67.61
77454;BME280;66538;53.150;18.160;2023-07-24T07:37:05;100356.55;;;21.72;67.88
77454;BME280;66538;53.150;18.160;2023-07-24T07:39:32;100357.53;;;21.73;68.31
77454;BME280;66538;53.150;18.160;2023-07-24T07:41:59;100354.79;;;21.76;68.43
77454;BME280;66538;53.150;18.160;2023-07-24T07:44:25;100355.36;;;21.74;68.77
77454;BME280;66538;53.150;18.160;2023-07-24T07:46:52;100356.78;;;21.70;68.90
77454;BME280;66538;53.150;18.160;2023-07-24T07:49:18;100349.81;;;21.66;68.86
77454;BME280;66538;53.150;18.160;2023-07-24T07:51:45;100347.25;;;21.65;68.88
77454;BME280;66538;53.150;18.160;2023-07-24T07:54:11;100342.45;;;21.66;68.92
77454;BME280;66538;53.150;18.160;2023-07-24T07:56:38;100340.09;;;21.71;68.97
77454;BME280;66538;53.150;18.160;2023-07-24T07:59:05;100336.63;;;21.79;68.77
77454;BME280;66538;53.150;18.160;2023-07-24T08:01:31;100333.45;;;21.87;68.68
77454;BME280;66538;53.150;18.160;2023-07-24T08:03:58;100329.02;;;22.00;68.59
77454;BME280;66538;53.150;18.160;2023-07-24T08:06:25;100322.03;;;22.13;68.33
77454;BME280;66538;53.150;18.160;2023-07-24T08:08:51;100323.20;;;22.16;67.88
77454;BME280;66538;53.150;18.160;2023-07-24T08:11:18;100316.05;;;22.14;68.45
77454;BME280;66538;53.150;18.160;2023-07-24T08:13:45;100314.54;;;22.23;68.51
77454;BME280;66538;53.150;18.160;2023-07-24T08:16:15;100308.13;;;22.35;67.97
77454;BME280;66538;53.150;18.160;2023-07-24T08:18:46;100310.73;;;22.47;67.34
77454;BME280;66538;53.150;18.160;2023-07-24T08:21:14;100311.64;;;22.63;66.88
77454;BME280;66538;53.150;18.160;2023-07-24T08:23:41;100299.84;;;22.76;66.52
77454;BME280;66538;53.150;18.160;2023-07-24T08:26:09;100306.11;;;22.87;65.03
77454;BME280;66538;53.150;18.160;2023-07-24T08:28:35;100308.24;;;23.00;64.82
77454;BME280;66538;53.150;18.160;2023-07-24T08:31:02;100302.30;;;23.21;64.72
77454;BME280;66538;53.150;18.160;2023-07-24T08:33:29;100297.91;;;23.40;64.58
77454;BME280;66538;53.150;18.160;2023-07-24T08:36:07;100291.38;;;23.54;63.27
77454;BME280;66538;53.150;18.160;2023-07-24T08:38:34;100283.98;;;23.72;62.61
77454;BME280;66538;53.150;18.160;2023-07-24T08:41:06;100281.58;;;23.98;62.57
77454;BME280;66538;53.150;18.160;2023-07-24T08:43:34;100271.30;;;24.25;61.07
77454;BME280;66538;53.150;18.160;2023-07-24T08:46:03;100265.99;;;24.44;60.17
77454;BME280;66538;53.150;18.160;2023-07-24T08:48:35;100266.24;;;24.59;59.00
77454;BME280;66538;53.150;18.160;2023-07-24T08:51:08;100255.28;;;24.72;57.99
77454;BME280;66538;53.150;18.160;2023-07-24T08:53:37;100257.12;;;24.83;57.67
77454;BME280;66538;53.150;18.160;2023-07-24T08:56:07;100256.41;;;24.95;56.01
77454;BME280;66538;53.150;18.160;2023-07-24T08:58:36;100258.31;;;25.00;56.17
77454;BME280;66538;53.150;18.160;2023-07-24T09:01:03;100254.16;;;25.10;56.13
77454;BME280;66538;53.150;18.160;2023-07-24T09:03:31;100253.77;;;25.22;54.91
77454;BME280;66538;53.150;18.160;2023-07-24T09:05:58;100252.95;;;25.37;54.53
77454;BME280;66538;53.150;18.160;2023-07-24T09:08:36;100249.56;;;25.53;53.67
77454;BME280;66538;53.150;18.160;2023-07-24T09:11:04;100247.41;;;25.65;53.90
77454;BME280;66538;53.150;18.160;2023-07-24T09:13:32;100249.27;;;25.83;53.44
77454;BME280;66538;53.150;18.160;2023-07-24T09:15:59;100245.06;;;25.84;52.20
77454;BME280;66538;53.150;18.160;2023-07-24T09:18:25;100243.95;;;25.76;52.59
77454;BME280;66538;53.150;18.160;2023-07-24T09:20:52;100242.02;;;25.74;52.53
77454;BME280;66538;53.150;18.160;2023-07-24T09:23:27;100238.48;;;25.78;52.48
77454;BME280;66538;53.150;18.160;2023-07-24T09:25:54;100235.89;;;25.93;52.49
77454;BME280;66538;53.150;18.160;2023-07-24T09:28:22;100234.87;;;26.02;51.80
77454;BME280;66538;53.150;18.160;2023-07-24T09:30:56;100230.13;;;26.05;51.41
77454;BME280;66538;53.150;18.160;2023-07-24T09:33:34;100230.06;;;26.16;50.83
77454;BME280;66538;53.150;18.160;2023-07-24T09:36:02;100226.29;;;26.30;50.60
77454;BME280;66538;53.150;18.160;2023-07-24T09:38:29;100230.59;;;26.42;49.43
77454;BME280;66538;53.150;18.160;2023-07-24T09:40:56;100219.02;;;26.57;48.98
77454;BME280;66538;53.150;18.160;2023-07-24T09:43:25;100216.08;;;26.81;48.92
77454;BME280;66538;53.150;18.160;2023-07-24T09:45:52;100209.38;;;26.89;47.25
77454;BME280;66538;53.150;18.160;2023-07-24T09:48:21;100207.20;;;26.85;46.54
77454;BME280;66538;53.150;18.160;2023-07-24T09:50:52;100212.11;;;26.80;46.95
77454;BME280;66538;53.150;18.160;2023-07-24T09:53:32;100215.21;;;26.82;45.68
77454;BME280;66538;53.150;18.160;2023-07-24T09:56:10;100209.02;;;26.83;45.72
77454;BME280;66538;53.150;18.160;2023-07-24T09:58:38;100212.23;;;26.88;45.53
77454;BME280;66538;53.150;18.160;2023-07-24T10:01:08;100211.73;;;26.97;45.01
77454;BME280;66538;53.150;18.160;2023-07-24T10:03:37;100211.54;;;27.07;44.70
77454;BME280;66538;53.150;18.160;2023-07-24T10:06:05;100205.55;;;27.20;44.33
77454;BME280;66538;53.150;18.160;2023-07-24T10:08:38;100200.98;;;27.30;44.14
77454;BME280;66538;53.150;18.160;2023-07-24T10:11:10;100189.88;;;27.43;44.45
77454;BME280;66538;53.150;18.160;2023-07-24T10:13:39;100184.44;;;27.70;43.32
77454;BME280;66538;53.150;18.160;2023-07-24T10:16:07;100175.64;;;27.86;43.50
77454;BME280;66538;53.150;18.160;2023-07-24T10:18:43;100167.98;;;28.12;43.51
77454;BME280;66538;53.150;18.160;2023-07-24T10:21:12;100171.58;;;28.35;42.92
77454;BME280;66538;53.150;18.160;2023-07-24T10:23:44;100160.30;;;28.53;41.54
77454;BME280;66538;53.150;18.160;2023-07-24T10:26:13;100151.48;;;28.71;41.83
77454;BME280;66538;53.150;18.160;2023-07-24T10:28:46;100149.74;;;28.90;40.95
77454;BME280;66538;53.150;18.160;2023-07-24T10:31:25;100135.91;;;28.93;39.99
77454;BME280;66538;53.150;18.160;2023-07-24T10:33:53;100131.05;;;29.02;40.09
77454;BME280;66538;53.150;18.160;2023-07-24T10:36:23;100129.30;;;29.13;39.76
77454;BME280;66538;53.150;18.160;2023-07-24T10:38:54;100136.40;;;29.31;39.12
77454;BME280;66538;53.150;18.160;2023-07-24T10:41:21;100129.98;;;29.46;38.61
77454;BME280;66538;53.150;18.160;2023-07-24T10:43:51;100132.95;;;29.61;37.98
77454;BME280;66538;53.150;18.160;2023-07-24T10:46:20;100134.14;;;29.64;38.01
77454;BME280;66538;53.150;18.160;2023-07-24T10:48:49;100124.62;;;29.64;37.51
77454;BME280;66538;53.150;18.160;2023-07-24T10:51:17;100119.36;;;29.62;37.98
77454;BME280;66538;53.150;18.160;2023-07-24T10:53:46;100124.79;;;29.75;37.91
77454;BME280;66538;53.150;18.160;2023-07-24T10:56:14;100127.83;;;29.95;37.54
77454;BME280;66538;53.150;18.160;2023-07-24T10:58:40;100125.28;;;30.02;37.48
77454;BME280;66538;53.150;18.160;2023-07-24T11:01:08;100127.61;;;29.99;36.89
77454;BME280;66538;53.150;18.160;2023-07-24T11:03:36;100128.52;;;29.96;37.47
77454;BME280;66538;53.150;18.160;2023-07-24T11:06:03;100121.14;;;29.99;37.03
77454;BME280;66538;53.150;18.160;2023-07-24T11:08:30;100123.73;;;30.06;37.02
77454;BME280;66538;53.150;18.160;2023-07-24T11:10:59;100116.48;;;30.22;36.83
77454;BME280;66538;53.150;18.160;2023-07-24T11:13:27;100115.38;;;30.35;35.63
77454;BME280;66538;53.150;18.160;2023-07-24T11:15:55;100103.79;;;30.35;35.64
77454;BME280;66538;53.150;18.160;2023-07-24T11:18:22;100103.08;;;30.27;36.10
77454;BME280;66538;53.150;18.160;2023-07-24T11:20:53;100101.88;;;30.17;36.07
77454;BME280;66538;53.150;18.160;2023-07-24T11:23:21;100102.73;;;30.10;36.37
77454;BME280;66538;53.150;18.160;2023-07-24T11:25:53;100101.95;;;29.98;36.66
77454;BME280;66538;53.150;18.160;2023-07-24T11:28:20;100106.27;;;29.98;36.60
77454;BME280;66538;53.150;18.160;2023-07-24T11:30:47;100104.86;;;30.14;36.20
77454;BME280;66538;53.150;18.160;2023-07-24T11:33:15;100102.48;;;30.35;36.36
77454;BME280;66538;53.150;18.160;2023-07-24T11:35:42;100110.73;;;30.65;35.49
77454;BME280;66538;53.150;18.160;2023-07-24T11:38:09;100108.27;;;30.73;34.59
77454;BME280;66538;53.150;18.160;2023-07-24T11:40:38;100111.39;;;30.80;34.69
77454;BME280;66538;53.150;18.160;2023-07-24T11:43:14;100104.46;;;30.68;34.71
77454;BME280;66538;53.150;18.160;2023-07-24T11:45:43;100099.25;;;30.47;35.29
77454;BME280;66538;53.150;18.160;2023-07-24T11:48:10;100101.42;;;30.32;35.44
77454;BME280;66538;53.150;18.160;2023-07-24T11:50:48;100103.68;;;30.22;35.98
77454;BME280;66538;53.150;18.160;2023-07-24T11:53:21;100094.56;;;30.36;35.94
77454;BME280;66538;53.150;18.160;2023-07-24T11:55:50;100093.25;;;30.60;35.52
77454;BME280;66538;53.150;18.160;2023-07-24T11:58:17;100093.15;;;30.77;34.95
77454;BME280;66538;53.150;18.160;2023-07-24T12:00:45;100083.35;;;30.91;34.05
77454;BME280;66538;53.150;18.160;2023-07-24T12:03:14;100084.13;;;31.00;33.79
77454;BME280;66538;53.150;18.160;2023-07-24T12:05:42;100080.34;;;31.13;32.97
77454;BME280;66538;53.150;18.160;2023-07-24T12:08:10;100072.23;;;31.36;33.05
77454;BME280;66538;53.150;18.160;2023-07-24T12:10:38;100067.68;;;31.60;32.60
77454;BME280;66538;53.150;18.160;2023-07-24T12:13:05;100066.13;;;31.78;31.60
77454;BME280;66538;53.150;18.160;2023-07-24T12:15:33;100064.64;;;31.86;31.96
77454;BME280;66538;53.150;18.160;2023-07-24T12:18:03;100064.21;;;32.01;31.72
77454;BME280;66538;53.150;18.160;2023-07-24T12:20:29;100060.27;;;32.10;31.26
77454;BME280;66538;53.150;18.160;2023-07-24T12:22:57;100063.16;;;31.92;31.65
77454;BME280;66538;53.150;18.160;2023-07-24T12:25:24;100063.04;;;31.61;31.35
77454;BME280;66538;53.150;18.160;2023-07-24T12:27:50;100058.95;;;31.24;31.72
77454;BME280;66538;53.150;18.160;2023-07-24T12:30:17;100061.34;;;30.96;32.56
77454;BME280;66538;53.150;18.160;2023-07-24T12:32:44;100057.42;;;30.84;32.73
77454;BME280;66538;53.150;18.160;2023-07-24T12:35:10;100053.46;;;30.87;32.71
77454;BME280;66538;53.150;18.160;2023-07-24T12:37:37;100047.49;;;30.95;32.65
77454;BME280;66538;53.150;18.160;2023-07-24T12:40:06;100043.08;;;31.07;32.42
77454;BME280;66538;53.150;18.160;2023-07-24T12:42:33;100041.29;;;31.14;32.40
77454;BME280;66538;53.150;18.160;2023-07-24T12:45:00;100034.70;;;31.11;32.62
77454;BME280;66538;53.150;18.160;2023-07-24T12:47:29;100033.13;;;31.03;32.42